Flight Track Log - Related Links

Times and Time Zones

All times are in EDT time to prevent confusion due to time zone crossing. See the ASQ4209 flight status page for this flight to view local times or setup timezone preferences in your user account.

Time Position Orientation Groundspeed Altitude Reporting Facility
EDT Latitude Longitude Course Direction KTS km/h feet Rate Location/Type
Mon 19:51:21 40.6333 -74.2167 53° Northeast 208 385 2,600  Level New York TRACON
Mon 19:52:21 40.6667 -74.2833 303° West 241 446 4,000 1,600 Climbing New York TRACON
Mon 19:53:00 40.9650 -73.7533 56° Northeast  Level FlightAware Approximate
Mon 19:53:21 40.7333 -74.3000 349° North 276 512 5,800  Level New York TRACON
Mon 19:54:00 41.0335 -73.6497 56° Northeast  Level FlightAware Approximate
Mon 19:54:21 40.7500 -74.2167 75° East 265 491 6,000  Level New York TRACON
Mon 19:55:00 41.1001 -73.5367 46° Northeast  Level FlightAware Approximate
Mon 19:56:00 41.1718 -73.4286 53° Northeast  Level FlightAware Approximate
Mon 19:56:25 40.7722 -74.0158 82° East 274 507 6,500  Level Boston Center
Mon 19:57:25 40.8128 -73.9347 57° Northeast 267 494 7,900 1,800 Climbing Boston Center
Mon 19:58:25 40.8661 -73.8564 48° Northeast 273 505 10,100 1,550 Climbing Boston Center
Mon 19:59:25 40.9275 -73.7725 46° Northeast 288 533 11,000 900 Climbing Boston Center
Mon 20:00:25 40.9953 -73.6747 47° Northeast 324 600 11,900 1,100 Climbing Boston Center
Mon 20:01:25 41.0672 -73.5772 46° Northeast 361 668 13,200 1,250 Climbing Boston Center
Mon 20:02:25 41.1389 -73.4764 47° Northeast 372 689 14,400 1,050 Climbing Boston Center
Mon 20:03:25 41.2025 -73.3617 54° Northeast 372 689 15,300 1,000 Climbing Boston Center
Mon 20:04:25 41.2681 -73.2436 54° Northeast 384 711 16,400 1,100 Climbing Boston Center
Mon 20:05:25 41.3314 -73.1256 54° Northeast 384 711 17,500 950 Climbing Boston Center
Mon 20:06:25 41.3944 -73.0100 54° Northeast 384 711 18,300 900 Climbing Boston Center
Mon 20:07:25 41.4639 -72.8833 54° Northeast 395 732 19,300 1,050 Climbing Boston Center
Mon 20:08:25 41.5247 -72.7644 56° Northeast 401 742 20,400 1,050 Climbing Boston Center
Mon 20:09:25 41.5894 -72.6428 55° Northeast 396 734 21,400 1,050 Climbing Boston Center
Mon 20:10:25 41.6542 -72.5178 55° Northeast 401 742 22,500 1,050 Climbing Boston Center
Mon 20:11:25 41.7125 -72.3872 59° Northeast 406 752 23,500 1,050 Climbing Boston Center
Mon 20:12:25 41.7708 -72.2564 59° Northeast 406 752 24,600 1,050 Climbing Boston Center
Mon 20:13:25 41.8394 -72.1392 52° Northeast 406 752 25,600 1,000 Climbing Boston Center
Mon 20:14:25 41.9267 -72.0494 37° Northeast 387 716 26,600 1,050 Climbing Boston Center
Mon 20:15:25 42.0117 -71.9650 36° Northeast 387 716 27,700 1,050 Climbing Boston Center
Mon 20:16:25 42.0967 -71.8750 38° Northeast 377 698 28,700 1,000 Climbing Boston Center
Mon 20:17:25 42.1797 -71.7900 37° Northeast 377 698 29,700 1,050 Climbing Boston Center
Mon 20:18:25 42.2647 -71.7022 37° Northeast 377 698 30,800 1,050 Climbing Boston Center
Mon 20:19:25 42.3517 -71.6142 37° Northeast 383 710 31,800 1,000 Climbing Boston Center
Mon 20:20:25 42.4406 -71.5286 35° Northeast 389 721 32,800 1,050 Climbing Boston Center
Mon 20:21:25 42.5272 -71.4344 39° Northeast 394 729 33,900 1,050 Climbing Boston Center
Mon 20:22:25 42.6078 -71.3483 38° Northeast 386 715 34,900 550 Climbing Boston Center
Mon 20:23:25 42.6986 -71.2536 37° Northeast 393 727 35,000 50 Climbing Boston Center
Mon 20:24:25 42.7872 -71.1614 37° Northeast 393 727 35,000  Level Boston Center
Mon 20:25:25 42.8797 -71.0603 39° Northeast 406 752 35,000  Level Boston Center
Mon 20:26:25 42.9594 -70.9392 48° Northeast 417 772 35,000  Level Boston Center
Mon 20:27:25 43.0072 -70.7792 68° East 430 797 35,000  Level Boston Center
Mon 20:28:25 43.0550 -70.6217 67° East 435 806 35,000  Level Boston Center
Mon 20:29:25 43.1003 -70.4639 68° East 441 816 35,000  Level Boston Center
Mon 20:30:25 43.1475 -70.3058 68° East 446 826 35,000  Level Boston Center
Mon 20:31:25 43.1942 -70.1444 68° East 446 826 35,000  Level Boston Center
Mon 20:32:25 43.2331 -70.0036 69° East 446 826 35,000 -350 Level Boston Center
Mon 20:33:25 43.2794 -69.8447 68° East 446 826 34,300 -500 Descending Boston Center
Mon 20:34:25 43.3339 -69.6711 67° East 441 816 34,000 -150 Descending Boston Center
Mon 20:35:25 43.3742 -69.5294 69° East 441 816 34,000  Level Boston Center
Mon 20:36:25 43.4178 -69.3669 70° East 441 816 34,000  Level Boston Center
Mon 20:37:25 43.4653 -69.2017 68° East 446 826 34,000  Level Boston Center
Mon 20:38:25 43.5033 -69.0708 68° East 451 835 34,000  Level Boston Center
Mon 20:39:25 43.5597 -68.8728 68° East 456 845 34,000  Level Boston Center
Mon 20:40:05 43.5833 -68.7500 75° East 470 871 34,000  Level Moncton Center
Mon 20:41:05 43.6167 -68.5833 75° East 480 888 34,000  Level Moncton Center
Mon 20:41:25 43.6489 -68.5400 44° Northeast 456 845 34,000 -75 Level Boston Center
Mon 20:42:25 43.6972 -68.3703 68° East 462 856 33,900  Descending Boston Center
Mon 20:43:05 43.7167 -68.2333 79° East 470 871 34,000 60 Climbing Moncton Center
Mon 20:44:05 43.7500 -68.0833 73° East 460 851 34,000  Level Moncton Center
Mon 20:45:05 43.8167 -67.9167 61° Northeast 450 834 34,000  Level Moncton Center
Mon 20:46:05 43.8500 -67.7500 74° East 460 851 34,000  Level Moncton Center
Mon 20:47:05 43.8833 -67.5667 76° East 460 851 34,000  Level Moncton Center
Mon 20:48:05 43.9500 -67.4167 58° Northeast 460 851 34,000  Level Moncton Center
Mon 20:49:05 43.9833 -67.2333 76° East 460 851 34,000  Level Moncton Center
Mon 20:50:05 44.0167 -67.0667 74° East 460 851 34,000  Level Moncton Center
Mon 20:51:05 44.0833 -66.8833 63° Northeast 460 851 34,000  Level Moncton Center
Mon 20:52:05 44.1167 -66.7333 73° East 460 851 34,000  Level Moncton Center
Mon 20:53:05 44.1500 -66.5667 74° East 460 851 34,000  Level Moncton Center
Mon 20:54:05 44.2000 -66.4000 67° East 460 851 34,000  Level Moncton Center
Mon 20:55:05 44.2333 -66.2333 74° East 460 851 34,000  Level Moncton Center
Mon 20:56:05 44.2833 -66.0500 69° East 460 851 34,000  Level Moncton Center
Mon 20:57:05 44.3333 -65.9000 65° Northeast 460 851 34,000  Level Moncton Center
Mon 20:58:05 44.3667 -65.7333 74° East 460 851 34,000  Level Moncton Center
Mon 20:59:05 44.4167 -65.5500 69° East 460 851 34,000 -250 Level Moncton Center
Mon 21:00:05 44.4500 -65.3833 74° East 460 851 33,500 -900 Descending Moncton Center
Mon 21:01:05 44.4833 -65.2167 74° East 460 851 32,200 -1,800 Descending Moncton Center
Mon 21:02:05 44.5333 -65.0500 67° East 450 834 29,900 -2,400 Descending Moncton Center
Mon 21:03:05 44.5667 -64.8833 74° East 460 851 27,400 -2,700 Descending Moncton Center
Mon 21:04:05 44.6000 -64.7000 76° East 460 851 24,500 -2,750 Descending Moncton Center
Mon 21:05:05 44.6500 -64.5333 67° East 460 851 21,900 -2,750 Descending Moncton Center
Mon 21:06:05 44.6500 -64.3667 90° East 440 814 19,000 -3,050 Descending Moncton Center
Mon 21:07:05 44.6667 -64.2167 81° East 410 760 15,800 -3,150 Descending Moncton Center
Mon 21:08:05 44.6667 -64.0667 90° East 390 723 12,700 -2,550 Descending Moncton Center
Mon 21:09:05 44.6833 -63.9000 82° East 350 649 10,700 -1,450 Descending Moncton Center
Mon 21:10:05 44.6833 -63.7833 90° East 310 575 9,800 -1,150 Descending Moncton Center
Mon 21:11:05 44.6833 -63.6833 90° East 290 538 8,400 -1,650 Descending Moncton Center
Mon 21:12:05 44.7000 -63.5667 79° East 270 501 6,500 -1,850 Descending Moncton Center
Mon 21:13:05 44.7000 -63.4833 90° East 260 481 4,700 -1,050 Descending Moncton Center
Mon 21:14:05 44.7000 -63.3667 90° East 250 463 4,400 -650 Descending Moncton Center
Mon 21:15:05 44.7500 -63.3167 35° Northeast 220 407 3,400 -1,000 Descending Moncton Center

Login

Don't have an account? Register now (free) for customized features, flight alerts, and more!